sensor_id;sensor_type;location;lat;lon;timestamp;P1;durP1;ratioP1;P2;durP2;ratioP2
11191;SDS011;5652;48.406;10.820;2024-01-10T00:00:08;39.88;;;27.00;;
11191;SDS011;5652;48.406;10.820;2024-01-10T00:02:36;39.05;;;26.52;;
11191;SDS011;5652;48.406;10.820;2024-01-10T00:05:03;38.00;;;25.50;;
11191;SDS011;5652;48.406;10.820;2024-01-10T00:07:32;37.97;;;25.58;;
11191;SDS011;5652;48.406;10.820;2024-01-10T00:10:03;39.58;;;26.27;;
11191;SDS011;5652;48.406;10.820;2024-01-10T00:12:30;38.65;;;26.70;;
11191;SDS011;5652;48.406;10.820;2024-01-10T00:15:01;37.23;;;25.27;;
11191;SDS011;5652;48.406;10.820;2024-01-10T00:17:28;38.00;;;25.25;;
11191;SDS011;5652;48.406;10.820;2024-01-10T00:19:55;37.83;;;25.85;;
11191;SDS011;5652;48.406;10.820;2024-01-10T00:22:22;38.03;;;26.42;;
11191;SDS011;5652;48.406;10.820;2024-01-10T00:24:51;36.33;;;26.27;;
11191;SDS011;5652;48.406;10.820;2024-01-10T00:27:18;40.97;;;26.65;;
11191;SDS011;5652;48.406;10.820;2024-01-10T00:29:45;39.25;;;25.98;;
11191;SDS011;5652;48.406;10.820;2024-01-10T00:32:12;37.85;;;25.45;;
11191;SDS011;5652;48.406;10.820;2024-01-10T00:34:39;36.78;;;25.30;;
11191;SDS011;5652;48.406;10.820;2024-01-10T00:37:07;36.33;;;25.83;;
11191;SDS011;5652;48.406;10.820;2024-01-10T00:39:34;38.60;;;25.95;;
11191;SDS011;5652;48.406;10.820;2024-01-10T00:42:03;38.83;;;26.05;;
11191;SDS011;5652;48.406;10.820;2024-01-10T00:44:30;38.53;;;25.52;;
11191;SDS011;5652;48.406;10.820;2024-01-10T00:46:57;37.75;;;25.63;;
11191;SDS011;5652;48.406;10.820;2024-01-10T00:49:24;36.85;;;25.52;;
11191;SDS011;5652;48.406;10.820;2024-01-10T00:51:51;39.70;;;26.02;;
11191;SDS011;5652;48.406;10.820;2024-01-10T00:54:19;36.35;;;25.30;;
11191;SDS011;5652;48.406;10.820;2024-01-10T00:56:46;36.17;;;25.02;;
11191;SDS011;5652;48.406;10.820;2024-01-10T00:59:16;38.05;;;25.75;;
11191;SDS011;5652;48.406;10.820;2024-01-10T01:01:43;37.15;;;25.48;;
11191;SDS011;5652;48.406;10.820;2024-01-10T01:04:11;41.37;;;27.43;;
11191;SDS011;5652;48.406;10.820;2024-01-10T01:06:38;38.60;;;25.80;;
11191;SDS011;5652;48.406;10.820;2024-01-10T01:09:05;40.25;;;26.65;;
11191;SDS011;5652;48.406;10.820;2024-01-10T01:11:32;41.17;;;26.70;;
11191;SDS011;5652;48.406;10.820;2024-01-10T01:13:59;42.30;;;27.57;;
11191;SDS011;5652;48.406;10.820;2024-01-10T01:16:29;39.22;;;26.45;;
11191;SDS011;5652;48.406;10.820;2024-01-10T01:18:56;38.30;;;26.83;;
11191;SDS011;5652;48.406;10.820;2024-01-10T01:21:23;39.03;;;26.83;;
11191;SDS011;5652;48.406;10.820;2024-01-10T01:23:50;38.75;;;26.75;;
11191;SDS011;5652;48.406;10.820;2024-01-10T01:26:17;39.40;;;26.33;;
11191;SDS011;5652;48.406;10.820;2024-01-10T01:28:44;39.03;;;27.30;;
11191;SDS011;5652;48.406;10.820;2024-01-10T01:31:12;42.05;;;26.58;;
11191;SDS011;5652;48.406;10.820;2024-01-10T01:33:40;38.75;;;26.17;;
11191;SDS011;5652;48.406;10.820;2024-01-10T01:36:07;39.10;;;27.27;;
11191;SDS011;5652;48.406;10.820;2024-01-10T01:38:35;37.83;;;26.35;;
11191;SDS011;5652;48.406;10.820;2024-01-10T01:41:02;41.35;;;27.15;;
11191;SDS011;5652;48.406;10.820;2024-01-10T01:43:31;40.13;;;27.48;;
11191;SDS011;5652;48.406;10.820;2024-01-10T01:45:58;39.83;;;27.15;;
11191;SDS011;5652;48.406;10.820;2024-01-10T01:48:25;40.70;;;27.50;;
11191;SDS011;5652;48.406;10.820;2024-01-10T01:50:55;41.03;;;27.20;;
11191;SDS011;5652;48.406;10.820;2024-01-10T01:53:23;40.42;;;27.83;;
11191;SDS011;5652;48.406;10.820;2024-01-10T01:55:50;43.05;;;27.55;;
11191;SDS011;5652;48.406;10.820;2024-01-10T01:58:18;43.30;;;28.15;;
11191;SDS011;5652;48.406;10.820;2024-01-10T02:00:46;40.05;;;28.05;;
11191;SDS011;5652;48.406;10.820;2024-01-10T02:03:13;44.72;;;29.35;;
11191;SDS011;5652;48.406;10.820;2024-01-10T02:05:40;44.20;;;29.85;;
11191;SDS011;5652;48.406;10.820;2024-01-10T02:08:09;44.55;;;29.88;;
11191;SDS011;5652;48.406;10.820;2024-01-10T02:10:36;44.10;;;28.83;;
11191;SDS011;5652;48.406;10.820;2024-01-10T02:13:03;42.25;;;28.42;;
11191;SDS011;5652;48.406;10.820;2024-01-10T02:15:30;41.17;;;28.95;;
11191;SDS011;5652;48.406;10.820;2024-01-10T02:17:58;43.95;;;29.08;;
11191;SDS011;5652;48.406;10.820;2024-01-10T02:20:25;42.58;;;29.25;;
11191;SDS011;5652;48.406;10.820;2024-01-10T02:22:52;43.67;;;29.05;;
11191;SDS011;5652;48.406;10.820;2024-01-10T02:25:20;44.15;;;29.45;;
11191;SDS011;5652;48.406;10.820;2024-01-10T02:27:47;43.35;;;29.35;;
11191;SDS011;5652;48.406;10.820;2024-01-10T02:30:14;41.33;;;28.85;;
11191;SDS011;5652;48.406;10.820;2024-01-10T02:32:42;43.45;;;28.70;;
11191;SDS011;5652;48.406;10.820;2024-01-10T02:35:09;42.38;;;28.95;;
11191;SDS011;5652;48.406;10.820;2024-01-10T02:37:36;41.42;;;28.33;;
11191;SDS011;5652;48.406;10.820;2024-01-10T02:40:04;42.47;;;28.15;;
11191;SDS011;5652;48.406;10.820;2024-01-10T02:42:35;40.17;;;28.33;;
11191;SDS011;5652;48.406;10.820;2024-01-10T02:45:02;41.78;;;27.85;;
11191;SDS011;5652;48.406;10.820;2024-01-10T02:47:30;44.20;;;29.20;;
11191;SDS011;5652;48.406;10.820;2024-01-10T02:49:57;40.20;;;27.77;;
11191;SDS011;5652;48.406;10.820;2024-01-10T02:52:24;41.90;;;28.60;;
11191;SDS011;5652;48.406;10.820;2024-01-10T02:54:51;42.50;;;28.67;;
11191;SDS011;5652;48.406;10.820;2024-01-10T02:57:19;41.30;;;28.17;;
11191;SDS011;5652;48.406;10.820;2024-01-10T02:59:47;40.83;;;27.77;;
11191;SDS011;5652;48.406;10.820;2024-01-10T03:02:14;41.53;;;27.83;;
11191;SDS011;5652;48.406;10.820;2024-01-10T03:04:42;41.70;;;27.08;;
11191;SDS011;5652;48.406;10.820;2024-01-10T03:07:09;40.00;;;27.15;;
11191;SDS011;5652;48.406;10.820;2024-01-10T03:09:36;42.05;;;28.15;;
11191;SDS011;5652;48.406;10.820;2024-01-10T03:12:04;39.53;;;27.23;;
11191;SDS011;5652;48.406;10.820;2024-01-10T03:14:32;40.65;;;26.77;;
11191;SDS011;5652;48.406;10.820;2024-01-10T03:17:00;39.75;;;26.27;;
11191;SDS011;5652;48.406;10.820;2024-01-10T03:19:28;38.25;;;27.15;;
11191;SDS011;5652;48.406;10.820;2024-01-10T03:21:55;36.30;;;25.50;;
11191;SDS011;5652;48.406;10.820;2024-01-10T03:24:22;36.72;;;25.15;;
11191;SDS011;5652;48.406;10.820;2024-01-10T03:26:52;35.53;;;24.60;;
11191;SDS011;5652;48.406;10.820;2024-01-10T03:29:19;36.47;;;24.50;;
11191;SDS011;5652;48.406;10.820;2024-01-10T03:31:46;34.88;;;24.02;;
11191;SDS011;5652;48.406;10.820;2024-01-10T03:34:14;39.75;;;26.70;;
11191;SDS011;5652;48.406;10.820;2024-01-10T03:36:43;39.00;;;26.35;;
11191;SDS011;5652;48.406;10.820;2024-01-10T03:39:10;42.25;;;27.27;;
11191;SDS011;5652;48.406;10.820;2024-01-10T03:41:37;38.03;;;26.33;;
11191;SDS011;5652;48.406;10.820;2024-01-10T03:44:04;39.17;;;26.80;;
11191;SDS011;5652;48.406;10.820;2024-01-10T03:46:31;39.15;;;26.27;;
11191;SDS011;5652;48.406;10.820;2024-01-10T03:48:58;41.05;;;27.02;;
11191;SDS011;5652;48.406;10.820;2024-01-10T03:51:27;40.38;;;27.05;;
11191;SDS011;5652;48.406;10.820;2024-01-10T03:53:54;41.25;;;27.50;;
11191;SDS011;5652;48.406;10.820;2024-01-10T03:56:21;40.72;;;28.35;;
11191;SDS011;5652;48.406;10.820;2024-01-10T03:58:48;41.47;;;27.67;;
11191;SDS011;5652;48.406;10.820;2024-01-10T04:01:15;40.20;;;27.10;;
11191;SDS011;5652;48.406;10.820;2024-01-10T04:03:43;39.67;;;26.83;;
11191;SDS011;5652;48.406;10.820;2024-01-10T04:06:10;39.97;;;27.05;;
11191;SDS011;5652;48.406;10.820;2024-01-10T04:08:38;37.85;;;26.00;;
11191;SDS011;5652;48.406;10.820;2024-01-10T04:11:05;39.58;;;27.80;;
11191;SDS011;5652;48.406;10.820;2024-01-10T04:13:34;41.27;;;27.83;;
11191;SDS011;5652;48.406;10.820;2024-01-10T04:16:01;41.72;;;28.23;;
11191;SDS011;5652;48.406;10.820;2024-01-10T04:18:28;42.15;;;28.08;;
11191;SDS011;5652;48.406;10.820;2024-01-10T04:20:56;42.40;;;28.55;;
11191;SDS011;5652;48.406;10.820;2024-01-10T04:23:23;43.65;;;29.58;;
11191;SDS011;5652;48.406;10.820;2024-01-10T04:25:51;40.50;;;28.13;;
11191;SDS011;5652;48.406;10.820;2024-01-10T04:28:19;41.25;;;27.60;;
11191;SDS011;5652;48.406;10.820;2024-01-10T04:30:46;44.40;;;28.60;;
11191;SDS011;5652;48.406;10.820;2024-01-10T04:33:13;42.65;;;28.88;;
11191;SDS011;5652;48.406;10.820;2024-01-10T04:35:40;43.50;;;29.30;;
11191;SDS011;5652;48.406;10.820;2024-01-10T04:38:07;41.35;;;28.67;;
11191;SDS011;5652;48.406;10.820;2024-01-10T04:40:35;42.80;;;28.33;;
11191;SDS011;5652;48.406;10.820;2024-01-10T04:43:03;43.03;;;29.58;;
11191;SDS011;5652;48.406;10.820;2024-01-10T04:45:30;47.30;;;32.20;;
11191;SDS011;5652;48.406;10.820;2024-01-10T04:47:57;42.92;;;29.13;;
11191;SDS011;5652;48.406;10.820;2024-01-10T04:50:25;42.60;;;28.75;;
11191;SDS011;5652;48.406;10.820;2024-01-10T04:52:52;38.92;;;27.08;;
11191;SDS011;5652;48.406;10.820;2024-01-10T04:55:19;41.90;;;28.23;;
11191;SDS011;5652;48.406;10.820;2024-01-10T04:57:46;40.90;;;27.98;;
11191;SDS011;5652;48.406;10.820;2024-01-10T05:00:15;42.42;;;29.42;;
11191;SDS011;5652;48.406;10.820;2024-01-10T05:02:42;44.58;;;29.75;;
11191;SDS011;5652;48.406;10.820;2024-01-10T05:05:09;47.37;;;30.93;;
11191;SDS011;5652;48.406;10.820;2024-01-10T05:07:36;43.80;;;31.30;;
11191;SDS011;5652;48.406;10.820;2024-01-10T05:10:04;47.17;;;32.03;;
11191;SDS011;5652;48.406;10.820;2024-01-10T05:12:31;48.08;;;33.13;;
11191;SDS011;5652;48.406;10.820;2024-01-10T05:14:58;48.28;;;32.75;;
11191;SDS011;5652;48.406;10.820;2024-01-10T05:17:27;46.97;;;32.30;;
11191;SDS011;5652;48.406;10.820;2024-01-10T05:19:54;51.05;;;33.83;;
11191;SDS011;5652;48.406;10.820;2024-01-10T05:22:21;50.33;;;33.03;;
11191;SDS011;5652;48.406;10.820;2024-01-10T05:24:48;50.30;;;32.95;;
11191;SDS011;5652;48.406;10.820;2024-01-10T05:27:15;49.85;;;32.05;;
11191;SDS011;5652;48.406;10.820;2024-01-10T05:29:42;48.63;;;34.05;;
11191;SDS011;5652;48.406;10.820;2024-01-10T05:32:11;52.00;;;35.30;;
11191;SDS011;5652;48.406;10.820;2024-01-10T05:34:39;49.92;;;33.80;;
11191;SDS011;5652;48.406;10.820;2024-01-10T05:37:07;50.17;;;33.40;;
11191;SDS011;5652;48.406;10.820;2024-01-10T05:39:34;48.85;;;34.25;;
11191;SDS011;5652;48.406;10.820;2024-01-10T05:42:04;49.78;;;33.78;;
11191;SDS011;5652;48.406;10.820;2024-01-10T05:44:31;51.13;;;34.83;;
11191;SDS011;5652;48.406;10.820;2024-01-10T05:46:58;50.60;;;34.25;;
11191;SDS011;5652;48.406;10.820;2024-01-10T05:49:25;50.40;;;34.50;;
11191;SDS011;5652;48.406;10.820;2024-01-10T05:51:54;49.90;;;33.88;;
11191;SDS011;5652;48.406;10.820;2024-01-10T05:54:21;51.50;;;34.72;;
11191;SDS011;5652;48.406;10.820;2024-01-10T05:56:48;50.30;;;34.25;;
11191;SDS011;5652;48.406;10.820;2024-01-10T05:59:15;50.27;;;33.30;;
11191;SDS011;5652;48.406;10.820;2024-01-10T06:01:44;48.20;;;33.75;;
11191;SDS011;5652;48.406;10.820;2024-01-10T06:04:11;50.60;;;33.53;;
11191;SDS011;5652;48.406;10.820;2024-01-10T06:06:38;51.05;;;33.33;;
11191;SDS011;5652;48.406;10.820;2024-01-10T06:09:07;52.67;;;34.83;;
11191;SDS011;5652;48.406;10.820;2024-01-10T06:11:40;49.17;;;33.83;;
11191;SDS011;5652;48.406;10.820;2024-01-10T06:14:08;51.50;;;34.70;;
11191;SDS011;5652;48.406;10.820;2024-01-10T06:16:35;48.97;;;33.03;;
11191;SDS011;5652;48.406;10.820;2024-01-10T06:19:02;51.03;;;34.40;;
11191;SDS011;5652;48.406;10.820;2024-01-10T06:21:30;54.17;;;34.47;;
11191;SDS011;5652;48.406;10.820;2024-01-10T06:23:57;53.25;;;34.13;;
11191;SDS011;5652;48.406;10.820;2024-01-10T06:26:25;50.20;;;33.42;;
11191;SDS011;5652;48.406;10.820;2024-01-10T06:28:53;51.92;;;34.45;;
11191;SDS011;5652;48.406;10.820;2024-01-10T06:31:20;53.72;;;33.53;;
11191;SDS011;5652;48.406;10.820;2024-01-10T06:33:48;52.85;;;34.63;;
11191;SDS011;5652;48.406;10.820;2024-01-10T06:36:16;52.77;;;35.00;;
11191;SDS011;5652;48.406;10.820;2024-01-10T06:38:43;50.95;;;34.17;;
11191;SDS011;5652;48.406;10.820;2024-01-10T06:41:10;52.92;;;35.53;;
11191;SDS011;5652;48.406;10.820;2024-01-10T06:43:40;51.63;;;33.78;;
11191;SDS011;5652;48.406;10.820;2024-01-10T06:46:07;51.40;;;34.22;;
11191;SDS011;5652;48.406;10.820;2024-01-10T06:48:35;51.77;;;34.60;;
11191;SDS011;5652;48.406;10.820;2024-01-10T06:51:02;52.17;;;34.65;;
11191;SDS011;5652;48.406;10.820;2024-01-10T06:53:29;56.63;;;35.72;;
11191;SDS011;5652;48.406;10.820;2024-01-10T06:55:56;56.80;;;36.58;;
11191;SDS011;5652;48.406;10.820;2024-01-10T06:58:23;53.47;;;35.58;;
11191;SDS011;5652;48.406;10.820;2024-01-10T07:00:52;55.25;;;36.08;;
11191;SDS011;5652;48.406;10.820;2024-01-10T07:03:19;54.70;;;34.95;;
11191;SDS011;5652;48.406;10.820;2024-01-10T07:05:46;55.38;;;36.05;;
11191;SDS011;5652;48.406;10.820;2024-01-10T07:08:13;57.35;;;37.28;;
11191;SDS011;5652;48.406;10.820;2024-01-10T07:10:41;60.97;;;37.85;;
11191;SDS011;5652;48.406;10.820;2024-01-10T07:13:09;59.30;;;38.30;;
11191;SDS011;5652;48.406;10.820;2024-01-10T07:15:36;65.20;;;39.53;;
11191;SDS011;5652;48.406;10.820;2024-01-10T07:18:05;55.22;;;37.15;;
11191;SDS011;5652;48.406;10.820;2024-01-10T07:20:33;58.10;;;36.30;;
11191;SDS011;5652;48.406;10.820;2024-01-10T07:23:00;59.45;;;36.80;;
11191;SDS011;5652;48.406;10.820;2024-01-10T07:25:27;54.22;;;35.85;;
11191;SDS011;5652;48.406;10.820;2024-01-10T07:27:54;56.15;;;35.83;;
11191;SDS011;5652;48.406;10.820;2024-01-10T07:30:21;53.28;;;34.75;;
11191;SDS011;5652;48.406;10.820;2024-01-10T07:32:48;53.25;;;33.85;;
11191;SDS011;5652;48.406;10.820;2024-01-10T07:35:17;58.83;;;37.88;;
11191;SDS011;5652;48.406;10.820;2024-01-10T07:37:45;56.30;;;37.85;;
11191;SDS011;5652;48.406;10.820;2024-01-10T07:40:13;56.67;;;35.72;;
11191;SDS011;5652;48.406;10.820;2024-01-10T07:42:40;54.75;;;35.17;;
11191;SDS011;5652;48.406;10.820;2024-01-10T07:45:08;52.00;;;35.70;;
11191;SDS011;5652;48.406;10.820;2024-01-10T07:47:36;72.15;;;43.97;;
11191;SDS011;5652;48.406;10.820;2024-01-10T07:50:04;56.13;;;36.17;;
11191;SDS011;5652;48.406;10.820;2024-01-10T07:52:33;75.43;;;44.78;;
11191;SDS011;5652;48.406;10.820;2024-01-10T07:55:00;64.40;;;40.20;;
11191;SDS011;5652;48.406;10.820;2024-01-10T07:57:30;55.90;;;35.95;;
11191;SDS011;5652;48.406;10.820;2024-01-10T07:59:57;55.05;;;35.55;;
11191;SDS011;5652;48.406;10.820;2024-01-10T08:02:24;51.03;;;34.00;;
11191;SDS011;5652;48.406;10.820;2024-01-10T08:04:52;49.90;;;32.75;;
11191;SDS011;5652;48.406;10.820;2024-01-10T08:07:19;50.47;;;34.00;;
11191;SDS011;5652;48.406;10.820;2024-01-10T08:09:47;58.85;;;39.58;;
11191;SDS011;5652;48.406;10.820;2024-01-10T08:12:14;47.60;;;32.70;;
11191;SDS011;5652;48.406;10.820;2024-01-10T08:14:42;41.05;;;28.35;;
11191;SDS011;5652;48.406;10.820;2024-01-10T08:17:11;43.80;;;29.35;;
11191;SDS011;5652;48.406;10.820;2024-01-10T08:19:38;42.83;;;28.95;;
11191;SDS011;5652;48.406;10.820;2024-01-10T08:22:05;45.08;;;31.25;;
11191;SDS011;5652;48.406;10.820;2024-01-10T08:24:33;44.83;;;29.95;;
11191;SDS011;5652;48.406;10.820;2024-01-10T08:27:01;38.35;;;26.85;;
11191;SDS011;5652;48.406;10.820;2024-01-10T08:29:28;40.83;;;27.65;;
11191;SDS011;5652;48.406;10.820;2024-01-10T08:31:56;39.87;;;27.30;;
11191;SDS011;5652;48.406;10.820;2024-01-10T08:34:24;35.70;;;25.05;;
11191;SDS011;5652;48.406;10.820;2024-01-10T08:36:51;39.67;;;27.13;;
11191;SDS011;5652;48.406;10.820;2024-01-10T08:39:19;36.53;;;25.00;;
11191;SDS011;5652;48.406;10.820;2024-01-10T08:41:47;45.00;;;27.90;;
11191;SDS011;5652;48.406;10.820;2024-01-10T08:44:15;40.25;;;27.05;;
11191;SDS011;5652;48.406;10.820;2024-01-10T08:46:42;37.53;;;25.63;;
11191;SDS011;5652;48.406;10.820;2024-01-10T08:49:09;34.05;;;23.77;;
11191;SDS011;5652;48.406;10.820;2024-01-10T08:51:37;33.78;;;23.67;;
11191;SDS011;5652;48.406;10.820;2024-01-10T08:54:06;34.10;;;23.83;;
11191;SDS011;5652;48.406;10.820;2024-01-10T08:56:34;35.85;;;24.42;;
11191;SDS011;5652;48.406;10.820;2024-01-10T08:59:01;36.45;;;25.85;;
11191;SDS011;5652;48.406;10.820;2024-01-10T09:01:30;37.50;;;25.52;;
11191;SDS011;5652;48.406;10.820;2024-01-10T09:03:57;34.83;;;25.52;;
11191;SDS011;5652;48.406;10.820;2024-01-10T09:06:24;38.67;;;25.53;;
11191;SDS011;5652;48.406;10.820;2024-01-10T09:08:51;35.63;;;24.75;;
11191;SDS011;5652;48.406;10.820;2024-01-10T09:11:19;32.97;;;24.33;;
11191;SDS011;5652;48.406;10.820;2024-01-10T09:13:46;36.80;;;23.92;;
11191;SDS011;5652;48.406;10.820;2024-01-10T09:16:14;35.25;;;23.92;;
11191;SDS011;5652;48.406;10.820;2024-01-10T09:18:43;34.75;;;23.33;;
11191;SDS011;5652;48.406;10.820;2024-01-10T09:21:10;33.80;;;24.42;;
11191;SDS011;5652;48.406;10.820;2024-01-10T09:23:38;35.25;;;24.90;;
11191;SDS011;5652;48.406;10.820;2024-01-10T09:26:05;37.50;;;24.90;;
11191;SDS011;5652;48.406;10.820;2024-01-10T09:28:33;35.83;;;24.97;;
11191;SDS011;5652;48.406;10.820;2024-01-10T09:31:00;34.83;;;25.05;;
11191;SDS011;5652;48.406;10.820;2024-01-10T09:33:28;36.72;;;24.45;;
11191;SDS011;5652;48.406;10.820;2024-01-10T09:35:56;38.67;;;26.23;;
11191;SDS011;5652;48.406;10.820;2024-01-10T09:38:24;38.13;;;25.87;;
11191;SDS011;5652;48.406;10.820;2024-01-10T09:40:51;38.78;;;25.73;;
11191;SDS011;5652;48.406;10.820;2024-01-10T09:43:19;42.28;;;27.73;;
11191;SDS011;5652;48.406;10.820;2024-01-10T09:45:46;40.47;;;26.83;;
11191;SDS011;5652;48.406;10.820;2024-01-10T09:48:15;38.83;;;26.95;;
11191;SDS011;5652;48.406;10.820;2024-01-10T09:50:42;44.13;;;28.52;;
11191;SDS011;5652;48.406;10.820;2024-01-10T09:53:12;40.55;;;27.13;;
11191;SDS011;5652;48.406;10.820;2024-01-10T09:55:43;41.08;;;27.55;;
11191;SDS011;5652;48.406;10.820;2024-01-10T09:58:11;41.83;;;27.52;;
11191;SDS011;5652;48.406;10.820;2024-01-10T10:00:38;40.83;;;27.55;;
11191;SDS011;5652;48.406;10.820;2024-01-10T10:03:06;40.72;;;27.52;;
11191;SDS011;5652;48.406;10.820;2024-01-10T10:05:36;40.97;;;27.35;;
11191;SDS011;5652;48.406;10.820;2024-01-10T10:08:05;40.38;;;27.02;;
11191;SDS011;5652;48.406;10.820;2024-01-10T10:10:36;39.83;;;26.50;;
11191;SDS011;5652;48.406;10.820;2024-01-10T10:13:08;40.03;;;26.95;;
11191;SDS011;5652;48.406;10.820;2024-01-10T10:15:36;38.97;;;26.60;;
11191;SDS011;5652;48.406;10.820;2024-01-10T10:18:03;37.65;;;26.88;;
11191;SDS011;5652;48.406;10.820;2024-01-10T10:20:31;39.80;;;26.48;;
11191;SDS011;5652;48.406;10.820;2024-01-10T10:23:02;41.28;;;27.02;;
11191;SDS011;5652;48.406;10.820;2024-01-10T10:25:30;38.03;;;26.13;;
11191;SDS011;5652;48.406;10.820;2024-01-10T10:27:59;39.60;;;25.97;;
11191;SDS011;5652;48.406;10.820;2024-01-10T10:30:27;38.10;;;25.65;;
11191;SDS011;5652;48.406;10.820;2024-01-10T10:32:54;40.97;;;26.40;;
11191;SDS011;5652;48.406;10.820;2024-01-10T10:35:21;38.93;;;26.63;;
11191;SDS011;5652;48.406;10.820;2024-01-10T10:37:48;35.88;;;25.33;;
11191;SDS011;5652;48.406;10.820;2024-01-10T10:40:16;40.35;;;27.13;;
11191;SDS011;5652;48.406;10.820;2024-01-10T10:42:44;39.10;;;26.15;;
11191;SDS011;5652;48.406;10.820;2024-01-10T10:45:14;37.58;;;26.38;;
11191;SDS011;5652;48.406;10.820;2024-01-10T10:47:41;38.80;;;26.23;;
11191;SDS011;5652;48.406;10.820;2024-01-10T10:50:11;37.75;;;25.38;;
11191;SDS011;5652;48.406;10.820;2024-01-10T10:52:39;38.10;;;26.65;;
11191;SDS011;5652;48.406;10.820;2024-01-10T10:55:09;40.85;;;27.02;;
11191;SDS011;5652;48.406;10.820;2024-01-10T10:57:37;38.33;;;26.20;;
11191;SDS011;5652;48.406;10.820;2024-01-10T11:00:06;36.03;;;25.58;;
11191;SDS011;5652;48.406;10.820;2024-01-10T11:02:36;40.08;;;26.40;;
11191;SDS011;5652;48.406;10.820;2024-01-10T11:05:04;37.57;;;25.27;;
11191;SDS011;5652;48.406;10.820;2024-01-10T11:07:34;37.58;;;26.27;;
11191;SDS011;5652;48.406;10.820;2024-01-10T11:10:02;34.53;;;25.13;;
11191;SDS011;5652;48.406;10.820;2024-01-10T11:12:34;40.42;;;26.27;;
11191;SDS011;5652;48.406;10.820;2024-01-10T11:15:09;38.10;;;25.63;;
11191;SDS011;5652;48.406;10.820;2024-01-10T11:20:36;37.78;;;26.52;;
11191;SDS011;5652;48.406;10.820;2024-01-10T11:23:20;38.95;;;26.98;;
11191;SDS011;5652;48.406;10.820;2024-01-10T11:25:52;37.88;;;26.00;;
11191;SDS011;5652;48.406;10.820;2024-01-10T11:28:20;37.88;;;26.35;;
11191;SDS011;5652;48.406;10.820;2024-01-10T11:30:48;36.70;;;25.52;;
11191;SDS011;5652;48.406;10.820;2024-01-10T11:33:20;41.33;;;25.17;;
11191;SDS011;5652;48.406;10.820;2024-01-10T11:36:07;39.85;;;26.20;;
11191;SDS011;5652;48.406;10.820;2024-01-10T11:38:38;35.42;;;25.05;;
11191;SDS011;5652;48.406;10.820;2024-01-10T11:41:06;37.63;;;25.92;;
11191;SDS011;5652;48.406;10.820;2024-01-10T11:43:33;40.63;;;26.55;;
11191;SDS011;5652;48.406;10.820;2024-01-10T11:46:02;37.90;;;26.00;;
11191;SDS011;5652;48.406;10.820;2024-01-10T11:48:31;37.80;;;25.60;;
11191;SDS011;5652;48.406;10.820;2024-01-10T11:50:58;36.03;;;25.98;;
11191;SDS011;5652;48.406;10.820;2024-01-10T11:53:44;39.20;;;25.63;;
11191;SDS011;5652;48.406;10.820;2024-01-10T11:56:12;37.22;;;25.95;;
11191;SDS011;5652;48.406;10.820;2024-01-10T11:58:54;38.50;;;26.00;;
11191;SDS011;5652;48.406;10.820;2024-01-10T12:01:21;36.30;;;25.70;;
11191;SDS011;5652;48.406;10.820;2024-01-10T12:03:50;36.60;;;25.73;;
11191;SDS011;5652;48.406;10.820;2024-01-10T12:06:19;37.13;;;25.55;;
11191;SDS011;5652;48.406;10.820;2024-01-10T12:08:49;37.50;;;26.10;;
11191;SDS011;5652;48.406;10.820;2024-01-10T12:11:16;39.58;;;26.98;;
11191;SDS011;5652;48.406;10.820;2024-01-10T12:13:43;39.55;;;26.17;;
11191;SDS011;5652;48.406;10.820;2024-01-10T12:16:12;38.83;;;26.83;;
11191;SDS011;5652;48.406;10.820;2024-01-10T12:18:39;42.20;;;27.57;;
11191;SDS011;5652;48.406;10.820;2024-01-10T12:21:06;40.90;;;27.15;;
11191;SDS011;5652;48.406;10.820;2024-01-10T12:23:35;40.63;;;26.55;;
11191;SDS011;5652;48.406;10.820;2024-01-10T12:26:05;40.22;;;28.10;;
11191;SDS011;5652;48.406;10.820;2024-01-10T12:28:34;38.22;;;26.10;;
11191;SDS011;5652;48.406;10.820;2024-01-10T12:31:01;37.13;;;25.75;;
11191;SDS011;5652;48.406;10.820;2024-01-10T12:33:28;36.00;;;25.65;;
11191;SDS011;5652;48.406;10.820;2024-01-10T12:36:02;37.30;;;26.45;;
11191;SDS011;5652;48.406;10.820;2024-01-10T12:38:29;37.58;;;25.58;;
11191;SDS011;5652;48.406;10.820;2024-01-10T12:40:57;35.78;;;24.63;;
11191;SDS011;5652;48.406;10.820;2024-01-10T12:43:25;33.60;;;24.08;;
11191;SDS011;5652;48.406;10.820;2024-01-10T12:46:02;37.10;;;24.80;;
11191;SDS011;5652;48.406;10.820;2024-01-10T12:48:29;34.25;;;24.48;;
11191;SDS011;5652;48.406;10.820;2024-01-10T12:50:58;35.85;;;24.75;;
11191;SDS011;5652;48.406;10.820;2024-01-10T12:53:26;35.20;;;24.33;;
11191;SDS011;5652;48.406;10.820;2024-01-10T12:55:53;32.28;;;23.05;;
11191;SDS011;5652;48.406;10.820;2024-01-10T12:58:20;32.88;;;23.02;;
11191;SDS011;5652;48.406;10.820;2024-01-10T13:00:49;33.87;;;23.60;;
11191;SDS011;5652;48.406;10.820;2024-01-10T13:03:16;34.42;;;24.13;;
11191;SDS011;5652;48.406;10.820;2024-01-10T13:05:43;32.10;;;22.65;;
11191;SDS011;5652;48.406;10.820;2024-01-10T13:08:10;30.83;;;22.83;;
11191;SDS011;5652;48.406;10.820;2024-01-10T13:10:38;32.13;;;23.45;;
11191;SDS011;5652;48.406;10.820;2024-01-10T13:13:05;30.35;;;22.63;;
11191;SDS011;5652;48.406;10.820;2024-01-10T13:15:33;31.35;;;23.45;;
11191;SDS011;5652;48.406;10.820;2024-01-10T13:18:02;33.60;;;22.83;;
11191;SDS011;5652;48.406;10.820;2024-01-10T13:20:29;31.95;;;23.30;;
11191;SDS011;5652;48.406;10.820;2024-01-10T13:22:56;31.02;;;22.83;;
11191;SDS011;5652;48.406;10.820;2024-01-10T13:25:23;35.30;;;24.40;;
11191;SDS011;5652;48.406;10.820;2024-01-10T13:27:54;32.60;;;24.07;;
11191;SDS011;5652;48.406;10.820;2024-01-10T13:30:22;34.70;;;24.88;;
11191;SDS011;5652;48.406;10.820;2024-01-10T13:32:49;33.65;;;24.33;;
11191;SDS011;5652;48.406;10.820;2024-01-10T13:35:18;35.17;;;24.55;;
11191;SDS011;5652;48.406;10.820;2024-01-10T13:37:45;36.40;;;25.38;;
11191;SDS011;5652;48.406;10.820;2024-01-10T13:40:12;34.87;;;25.50;;
11191;SDS011;5652;48.406;10.820;2024-01-10T13:42:39;34.58;;;24.73;;
11191;SDS011;5652;48.406;10.820;2024-01-10T13:45:07;36.20;;;25.90;;
11191;SDS011;5652;48.406;10.820;2024-01-10T13:47:36;35.63;;;26.05;;
11191;SDS011;5652;48.406;10.820;2024-01-10T13:50:04;38.15;;;26.35;;
11191;SDS011;5652;48.406;10.820;2024-01-10T13:52:32;37.53;;;26.42;;
11191;SDS011;5652;48.406;10.820;2024-01-10T13:55:00;38.17;;;26.45;;
11191;SDS011;5652;48.406;10.820;2024-01-10T13:57:29;37.78;;;26.67;;
11191;SDS011;5652;48.406;10.820;2024-01-10T13:59:57;38.53;;;27.05;;
11191;SDS011;5652;48.406;10.820;2024-01-10T14:02:25;38.90;;;26.73;;
11191;SDS011;5652;48.406;10.820;2024-01-10T14:04:52;36.10;;;25.77;;
11191;SDS011;5652;48.406;10.820;2024-01-10T14:07:22;36.35;;;25.88;;
11191;SDS011;5652;48.406;10.820;2024-01-10T14:09:50;37.30;;;25.83;;
11191;SDS011;5652;48.406;10.820;2024-01-10T14:12:19;38.00;;;27.00;;
11191;SDS011;5652;48.406;10.820;2024-01-10T14:14:47;37.03;;;25.73;;
11191;SDS011;5652;48.406;10.820;2024-01-10T14:17:15;35.95;;;26.15;;
11191;SDS011;5652;48.406;10.820;2024-01-10T14:19:42;37.00;;;26.38;;
11191;SDS011;5652;48.406;10.820;2024-01-10T14:22:10;37.40;;;26.52;;
11191;SDS011;5652;48.406;10.820;2024-01-10T14:24:37;39.33;;;26.40;;
11191;SDS011;5652;48.406;10.820;2024-01-10T14:27:05;36.78;;;26.20;;